Mt Bachelor previous 24hr weather report

For range Mar 4 2015 12:01 AM PST to Mar 5 2015 12:01 AM PST.

Date and time 6300' Base Temp 7800' Pine Temp 8000' Northwest Temp 9000' Summit Temp Base RH Pine RH Summit RH Pine Wind Avg Pine Wind Max Pine Wind Dir Northwest Wind Avg Northwest Wind Max Northwest Wind Dir Summit Wind Avg Summit Wind Max Summit Wind Dir Snowdepth
Mar 4 2015 11:00 PM PST 24.13 34.66 n/a 30.9 60 30 36 22 27 178 n/a n/a n/a 24 26 292 52
Mar 4 2015 10:00 PM PST 24.13 34.56 n/a 31.84 57 28 33 19 24 177 n/a n/a n/a 19 20 292 52
Mar 4 2015 9:00 PM PST 25.41 34.76 n/a 33.71 56 32 32 18 22 182 n/a n/a n/a 11 14 292 52
Mar 4 2015 8:00 PM PST 25.88 35.07 n/a 35.1 51 28 29 13 18 181 n/a n/a n/a 10 11 292 52
Mar 4 2015 7:00 PM PST 26.94 33.75 n/a 36.08 47 26 29 0 4 76 n/a n/a n/a 7 8 292 52
Mar 4 2015 6:00 PM PST 30.62 37.11 n/a 36.02 41 26 30 6 13 202 n/a n/a n/a 7 10 292 52
Mar 4 2015 5:00 PM PST 36.36 37.17 n/a 34.66 32 26 32 9 13 176 n/a n/a n/a 13 16 292 52
Mar 4 2015 4:00 PM PST 43.18 37.13 n/a 34.49 20 32 31 5 12 195 n/a n/a n/a 13 16 292 52
Mar 4 2015 3:00 PM PST 43.1 37.59 n/a 35.94 25 31 30 1 5 164 n/a n/a n/a 6 10 292 52
Mar 4 2015 2:00 PM PST 42.9 37.21 n/a 35.31 31 29 32 0 2 159 n/a n/a n/a 2 6 268 51
Mar 4 2015 1:00 PM PST 43.12 35.76 n/a 30.8 22 29 13 5 14 95 n/a n/a n/a 6 8 292 52
Mar 4 2015 12:00 PM PST 43.68 34.92 n/a 30.03 23 17 11 9 14 96 n/a n/a n/a 11 13 292 52
Mar 4 2015 11:00 AM PST 41.99 34.6 n/a 29.11 26 14 8 8 12 122 n/a n/a n/a 15 18 292 52
Mar 4 2015 10:00 AM PST 29.71 34.0 n/a 27.58 41 9 5 8 12 135 n/a n/a n/a 19 21 292 53
Mar 4 2015 9:00 AM PST 22.82 32.64 n/a 26.39 57 8 4 12 17 137 n/a n/a n/a 21 22 292 53
Mar 4 2015 8:00 AM PST 17.3 30.71 n/a 26.95 70 9 4 11 15 161 n/a n/a n/a 20 21 292 53
Mar 4 2015 7:00 AM PST 13.61 30.46 n/a 26.74 75 8 4 5 14 142 n/a n/a n/a 25 27 292 53
Mar 4 2015 6:00 AM PST 11.18 30.86 n/a 25.9 78 9 7 2 9 63 n/a n/a n/a 23 27 292 53
Mar 4 2015 5:00 AM PST 11.36 31.17 n/a 26.02 82 11 8 0 1 151 n/a n/a n/a 14 18 292 53
Mar 4 2015 4:00 AM PST 13.39 29.81 n/a 25.99 81 14 9 0 0 178 n/a n/a n/a 12 21 292 53
Mar 4 2015 3:00 AM PST 14.4 29.52 n/a 26.03 83 19 11 0 0 109 n/a n/a n/a 14 16 292 53
Mar 4 2015 2:00 AM PST 13.74 27.1 n/a 26.5 75 24 8 0 1 175 n/a n/a n/a 10 15 292 53
Mar 4 2015 1:00 AM PST 13.59 27.52 n/a 26.38 75 23 9 0 3 203 n/a n/a n/a 12 15 292 53
Mar 4 2015 12:00 AM PST 15.26 26.69 n/a 23.92 70 23 19 0 0 212 n/a n/a n/a 8 12 292 53